Cedar Point, KS (66843)

8:13 AM CDT on March 24, 2017 (GMT -0500)
Marion County Lake | | Change Station
Active Advisory: Wind Advisory Active Notice: Public Information Statement

Elev 1362 ft 38.32 °N, 96.99 °W | Updated 7 seconds ago

Partly Cloudy
Partly Cloudy
64.8 °F
Feels Like 64.8 °F
N
11.4
Wind Variable Wind from NE
Gusts 12.1 mph

Today
High -- | Low -- °F
--% Chance of Precip.
Yesterday
High -- | Low -- °F
Precip. -- in
Pressure 29.68 in
Visibility 10.0 miles
Clouds Clear
Dew Point 30 °F
Humidity 27%
Rainfall 0.00 in
Snow Depth Not available.
7:24 AM 7:43 PM
Waning Crescent, 15% visible
METAR KEWK 241256Z AUTO 18018KT 10SM CLR 17/07 A2972 RMK AO2 PK WND 18031/1205 SLP051 T01670072
Pressure 29.68 in
Visibility 10.0 miles
Clouds Clear
Dew Point 30 °F
Humidity 27%
Rainfall 0.00 in
Snow Depth Not available.
7:24 AM 7:43 PM
Waning Crescent, 15% visible
METAR KEWK 241256Z AUTO 18018KT 10SM CLR 17/07 A2972 RMK AO2 PK WND 18031/1205 SLP051 T01670072

Get Your Daily Forecast Email!

Thanks for signing up!

Be on the lookout for a verification email in your inbox.

You'll start receiving severe weather alerts in your inbox..

×

10-Day Weather Forecast

Almanac

Astronomy

Mar. 24, 2017 Rise Set
Actual Time
Civil Twilight
Nautical Twilight
Astronomical Twilight
Moon
Length of Visible Light
Length of Day
Tomorrow will be .
, % of the Moon is Illuminated

Today's Extremes

State Highs State Lows

Community

WunderPhotos

Upload Photos

1,962,540 photos uploaded!

WunderBlog® & News

Nearby

Air Quality

  Air Quality AQ Index Pollutant
Not available.

Snow Depth

Station Depth Elevation

Earthquake Activity

City Distance Mag. Time & Date
Minimum magnitude displayed is 2.5.

Earthquake Activity

City Distance Mag. Time & Date
Minimum magnitude displayed is 2.5.

Coastal Water Temperatures

Place Temperature

Stations

Nearby Weather Stations

Station Location Temp. Windchill Dew Point Humidity Wind Precip. Elev Updated Type
                   

Watches & Warnings

Wind Advisory
Issued: 3:26 AM CDT Mar. 24, 2017 – National Weather Service

... Wind Advisory now in effect until 1 PM CDT this afternoon...

* winds... south 25 to 30 mph with gusts up to 45 mph.

* Timing... this morning.

* Impacts... high profile vehicles prone to the strong wind gusts
should use extra caution, especially on east-west oriented
roads and highways.

Precautionary/preparedness actions...

A Wind Advisory means that sustained winds of at least 30 mph
and/or wind gusts over 45 mph are expected. Winds this strong
can make driving difficult... especially for high profile
vehicles. Use extra caution.